Time;durP1;ratioP1;P1;durP2;ratioP2;P2;SDS_P1;SDS_P2;PMS_P1;PMS_P2;Temp;Humidity;BMP_temperature;BMP_pressure;BME280_temperature;BME280_humidity;BME280_pressure;Samples;Min_cycle;Max_cycle;Signal;HPM_P1;HPM_P2
2022/03/30 00:02:00;;;;;;;46.05;22.25;;;;;;;;;;4420927;32;20299;-72
2022/03/30 00:04:25;;;;;;;;;;;;;;;;;;4407630;32;20053;-72
2022/03/30 00:06:50;;;;;;;45.72;24.00;;;;;;;;;;4404985;32;19997;-73
2022/03/30 00:09:15;;;;;;;;;;;;;;;;;;4405664;32;20118;-72
2022/03/30 00:11:40;;;;;;;46.05;21.45;;;;;;;;;;4407931;32;19967;-72
2022/03/30 00:14:05;;;;;;;;;;;;;;;;;;4405361;32;20123;-72
2022/03/30 00:16:33;;;;;;;39.58;21.48;;;;;;;;;;4414758;32;20312;-72
2022/03/30 00:18:58;;;;;;;39.75;20.37;;;;;;;;;;4423117;32;20061;-73
2022/03/30 00:21:24;;;;;;;;;;;;;;;;;;4422177;32;20029;-73
2022/03/30 00:23:49;;;;;;;39.75;21.08;;;;;;;;;;4423130;32;19941;-72
2022/03/30 00:26:14;;;;;;;;;;;;;;;;;;4415857;32;20344;-73
2022/03/30 00:28:39;;;;;;;38.80;21.98;;;;;;;;;;4405098;32;19948;-72
2022/03/30 00:31:04;;;;;;;;;;;;;;;;;;4406717;32;20118;-73
2022/03/30 00:33:29;;;;;;;37.47;20.92;;;;;;;;;;4408971;32;20311;-71
2022/03/30 00:35:55;;;;;;;;;;;;;;;;;;4408859;32;20172;-72
2022/03/30 00:38:20;;;;;;;40.28;21.00;;;;;;;;;;4409149;32;19965;-71
2022/03/30 00:40:45;;;;;;;;;;;;;;;;;;4409145;32;20153;-71
2022/03/30 00:43:11;;;;;;;47.30;22.08;;;;;;;;;;4408681;32;20288;-71
2022/03/30 00:45:36;;;;;;;;;;;;;;;;;;4407159;32;20387;-71
2022/03/30 00:48:02;;;;;;;43.63;20.48;;;;;;;;;;4408400;32;19964;-71
2022/03/30 00:50:27;;;;;;;;;;;;;;;;;;4406699;32;20185;-72
2022/03/30 00:52:56;;;;;;;45.95;19.70;;;;;;;;;;4406358;32;19949;-73
2022/03/30 00:55:22;;;;;;;40.58;19.65;;;;;;;;;;4405389;32;20121;-71
2022/03/30 00:57:48;;;;;;;;;;;;;;;;;;4407984;32;20030;-71
2022/03/30 01:00:15;;;;;;;43.00;19.42;;;;;;;;;;4419992;32;20396;-71
2022/03/30 01:02:40;;;;;;;38.53;20.25;;;;;;;;;;4422156;32;20025;-71
2022/03/30 01:05:05;;;;;;;;;;;;;;;;;;4421812;32;20122;-72
2022/03/30 01:07:31;;;;;;;35.85;17.98;;;;;;;;;;4423278;32;19941;-72
2022/03/30 01:09:56;;;;;;;;;;;;;;;;;;4421761;32;20059;-72
2022/03/30 01:12:21;;;;;;;42.58;19.37;;;;;;;;;;4420993;32;19975;-73
2022/03/30 01:14:46;;;;;;;;;;;;;;;;;;4405927;32;20152;-73
2022/03/30 01:17:13;;;;;;;43.22;21.10;;;;;;;;;;4405268;32;19948;-72
2022/03/30 01:19:38;;;;;;;37.53;19.25;;;;;;;;;;4408143;32;20034;-72
2022/03/30 01:22:03;;;;;;;;;;;;;;;;;;4418171;32;20033;-72
2022/03/30 01:24:28;;;;;;;43.92;19.75;;;;;;;;;;4419591;32;19937;-72
2022/03/30 01:26:53;;;;;;;;;;;;;;;;;;4420464;32;20076;-73
2022/03/30 01:34:46;;;;;;;36.63;19.75;;;;;;;;;;4407495;32;20493;-72
2022/03/30 01:37:12;;;;;;;;;;;;;;;;;;4404456;32;20034;-72
2022/03/30 01:39:37;;;;;;;38.80;21.17;;;;;;;;;;4405958;32;20279;-72
2022/03/30 01:42:02;;;;;;;;;;;;;;;;;;4404858;32;20031;-73
2022/03/30 01:44:27;;;;;;;36.33;19.90;;;;;;;;;;4405026;32;19972;-73
2022/03/30 01:46:53;;;;;;;;;;;;;;;;;;4405941;32;20034;-73
2022/03/30 01:49:21;;;;;;;47.78;20.33;;;;;;;;;;4405220;32;19970;-73
2022/03/30 01:51:48;;;;;;;43.78;20.85;;;;;;;;;;4405555;32;20161;-73
2022/03/30 01:54:13;;;;;;;51.22;20.98;;;;;;;;;;4406679;32;20029;-73
2022/03/30 01:56:38;;;;;;;;;;;;;;;;;;4405457;32;20382;-73
2022/03/30 01:59:03;;;;;;;42.22;20.23;;;;;;;;;;4404543;32;19941;-73
2022/03/30 02:01:28;;;;;;;;;;;;;;;;;;4405838;32;20030;-73
2022/03/30 02:03:56;;;;;;;38.63;20.75;;;;;;;;;;4403525;32;19952;-72
2022/03/30 02:06:24;;;;;;;45.58;21.17;;;;;;;;;;4415086;32;20022;-73
2022/03/30 02:08:49;;;;;;;40.00;18.95;;;;;;;;;;4418819;32;20030;-73
2022/03/30 02:11:14;;;;;;;;;;;;;;;;;;4420622;32;20064;-72
2022/03/30 02:13:39;;;;;;;40.65;21.40;;;;;;;;;;4421722;32;19942;-72
2022/03/30 02:16:04;;;;;;;;;;;;;;;;;;4420306;32;20137;-72
2022/03/30 02:18:29;;;;;;;47.30;20.05;;;;;;;;;;4418624;32;19945;-72
2022/03/30 02:20:54;;;;;;;;;;;;;;;;;;4407992;32;20026;-72
2022/03/30 02:23:20;;;;;;;40.42;19.58;;;;;;;;;;4406472;32;19952;-72
2022/03/30 02:25:45;;;;;;;;;;;;;;;;;;4406370;32;20110;-72
2022/03/30 02:28:10;;;;;;;45.20;20.58;;;;;;;;;;4404989;32;19942;-72
2022/03/30 02:30:35;;;;;;;;;;;;;;;;;;4410387;32;20118;-72
2022/03/30 02:33:01;;;;;;;40.03;21.42;;;;;;;;;;4417494;32;19938;-72
2022/03/30 02:35:27;;;;;;;52.67;22.00;;;;;;;;;;4423253;32;20195;-72
2022/03/30 02:37:55;;;;;;;;;;;;;;;;;;4422285;32;20453;-72
2022/03/30 02:40:20;;;;;;;44.83;21.67;;;;;;;;;;4419332;32;19952;-72
2022/03/30 02:42:45;;;;;;;;;;;;;;;;;;4420262;32;20061;-71
2022/03/30 02:45:11;;;;;;;45.10;21.17;;;;;;;;;;4421644;32;19937;-72
2022/03/30 02:50:20;;;;;;;43.05;22.42;;;;;;;;;;4406174;32;19963;-72
2022/03/30 02:52:45;;;;;;;;;;;;;;;;;;4405981;32;20101;-72
2022/03/30 02:55:10;;;;;;;45.65;21.02;;;;;;;;;;4404911;32;19968;-72
2022/03/30 02:57:35;;;;;;;;;;;;;;;;;;4406236;32;20054;-72
2022/03/30 03:00:00;;;;;;;49.08;24.02;;;;;;;;;;4404747;32;19933;-72
2022/03/30 03:02:25;;;;;;;;;;;;;;;;;;4406656;32;20172;-73
2022/03/30 03:04:51;;;;;;;41.08;20.70;;;;;;;;;;4406354;32;19941;-73
2022/03/30 03:07:17;;;;;;;;;;;;;;;;;;4410597;32;20062;-72
2022/03/30 03:09:42;;;;;;;48.58;22.50;;;;;;;;;;4419751;32;19937;-73
2022/03/30 03:12:07;;;;;;;;;;;;;;;;;;4421694;32;20121;-74
2022/03/30 03:14:32;;;;;;;54.20;22.83;;;;;;;;;;4419721;32;19942;-72
2022/03/30 03:16:57;;;;;;;53.20;24.20;;;;;;;;;;4419827;32;20046;-72
2022/03/30 03:19:23;;;;;;;;;;;;;;;;;;4416580;32;20022;-72
2022/03/30 03:21:48;;;;;;;41.72;20.35;;;;;;;;;;4420861;32;20020;-73
2022/03/30 03:24:13;;;;;;;;;;;;;;;;;;4418260;32;20113;-72
2022/03/30 03:26:38;;;;;;;43.72;20.05;;;;;;;;;;4412963;32;19984;-72
2022/03/30 03:29:03;;;;;;;;;;;;;;;;;;4419998;32;20026;-73
2022/03/30 03:31:29;;;;;;;42.70;20.40;;;;;;;;;;4419735;32;19937;-73
2022/03/30 03:33:54;;;;;;;;;;;;;;;;;;4407212;32;20137;-73
2022/03/30 03:36:19;;;;;;;41.08;20.17;;;;;;;;;;4407110;32;19953;-73
2022/03/30 03:38:44;;;;;;;;;;;;;;;;;;4413781;32;20061;-72
2022/03/30 03:41:09;;;;;;;43.13;20.40;;;;;;;;;;4422793;32;19941;-72
2022/03/30 03:43:34;;;;;;;;;;;;;;;;;;4422801;32;20026;-72
2022/03/30 03:46:00;;;;;;;45.58;20.17;;;;;;;;;;4420415;32;20315;-72
2022/03/30 03:48:25;;;;;;;;;;;;;;;;;;4422501;32;20042;-72
2022/03/30 03:50:50;;;;;;;44.38;21.17;;;;;;;;;;4420115;32;20023;-73
2022/03/30 03:53:15;;;;;;;;;;;;;;;;;;4423869;32;20133;-73
2022/03/30 03:55:40;;;;;;;44.80;21.65;;;;;;;;;;4422430;32;19941;-73
2022/03/30 03:58:07;;;;;;;;;;;;;;;;;;4427746;32;20136;-73
2022/03/30 04:00:34;;;;;;;39.50;18.53;;;;;;;;;;4433576;32;20003;-73
2022/03/30 04:03:00;;;;;;;40.20;19.08;;;;;;;;;;4433981;32;20064;-73
2022/03/30 04:05:25;;;;;;;;;;;;;;;;;;4437786;32;20030;-72
2022/03/30 04:07:50;;;;;;;47.47;20.40;;;;;;;;;;4432987;32;19973;-72
2022/03/30 04:10:15;;;;;;;;;;;;;;;;;;4437981;32;20160;-73
2022/03/30 04:12:40;;;;;;;52.10;21.83;;;;;;;;;;4432898;32;19956;-72
2022/03/30 04:15:06;;;;;;;42.97;21.20;;;;;;;;;;4419551;32;20053;-72
2022/03/30 04:17:32;;;;;;;39.67;19.58;;;;;;;;;;4420671;32;20098;-72
2022/03/30 04:19:57;;;;;;;;;;;;;;;;;;4422918;32;20099;-72
2022/03/30 04:22:22;;;;;;;53.03;22.27;;;;;;;;;;4421817;32;20331;-72
2022/03/30 04:24:47;;;;;;;;;;;;;;;;;;4421972;32;20021;-72
2022/03/30 04:27:13;;;;;;;60.65;23.40;;;;;;;;;;4421763;32;19940;-72
2022/03/30 04:29:38;;;;;;;;;;;;;;;;;;4416325;32;20046;-72
2022/03/30 04:32:03;;;;;;;48.13;21.85;;;;;;;;;;4438699;32;19951;-71
2022/03/30 04:34:28;;;;;;;;;;;;;;;;;;4436389;32;20121;-73
2022/03/30 04:36:54;;;;;;;51.95;23.75;;;;;;;;;;4438235;32;19932;-73
2022/03/30 04:39:19;;;;;;;;;;;;;;;;;;4436702;32;20216;-72
2022/03/30 04:41:44;;;;;;;46.20;21.20;;;;;;;;;;4428572;32;19960;-72
2022/03/30 04:44:09;;;;;;;;;;;;;;;;;;4419918;32;20034;-73
2022/03/30 04:46:34;;;;;;;41.63;21.15;;;;;;;;;;4422408;32;19937;-73
2022/03/30 04:48:59;;;;;;;;;;;;;;;;;;4420751;32;20355;-72
2022/03/30 04:51:25;;;;;;;49.38;21.42;;;;;;;;;;4419652;32;19969;-73
2022/03/30 04:53:50;;;;;;;;;;;;;;;;;;4405196;32;20053;-72
2022/03/30 04:56:15;;;;;;;54.05;21.20;;;;;;;;;;4411912;32;19957;-71
2022/03/30 04:58:40;;;;;;;;;;;;;;;;;;4421906;32;20034;-73
2022/03/30 05:01:05;;;;;;;58.15;22.25;;;;;;;;;;4421357;32;19989;-73
2022/03/30 05:03:30;;;;;;;;;;;;;;;;;;4421705;32;20086;-72
2022/03/30 05:05:57;;;;;;;44.78;21.08;;;;;;;;;;4419315;32;19978;-74
2022/03/30 05:08:22;;;;;;;52.55;21.58;;;;;;;;;;4419481;32;20130;-72
2022/03/30 05:10:47;;;;;;;;;;;;;;;;;;4417664;32;20022;-72
2022/03/30 05:13:13;;;;;;;44.65;20.42;;;;;;;;;;4422701;32;19937;-72
2022/03/30 05:15:38;;;;;;;;;;;;;;;;;;4423050;32;20313;-71
2022/03/30 05:18:03;;;;;;;48.87;20.85;;;;;;;;;;4420608;32;19941;-71
2022/03/30 05:20:28;;;;;;;;;;;;;;;;;;4423233;32;20052;-71
2022/03/30 05:22:53;;;;;;;52.90;22.92;;;;;;;;;;4421405;32;19992;-71
2022/03/30 05:25:22;;;;;;;;;;;;;;;;;;4422553;32;20056;-71
2022/03/30 05:27:47;;;;;;;44.95;21.67;;;;;;;;;;4420517;32;19945;-72
2022/03/30 05:30:12;;;;;;;;;;;;;;;;;;4421423;32;20476;-71
2022/03/30 05:32:37;;;;;;;47.03;23.10;;;;;;;;;;4420932;32;19937;-71
2022/03/30 05:35:02;;;;;;;;;;;;;;;;;;4406918;32;20473;-71
2022/03/30 05:37:28;;;;;;;43.10;19.10;;;;;;;;;;4419435;32;20289;-71
2022/03/30 05:39:53;;;;;;;;;;;;;;;;;;4422012;32;20132;-71
2022/03/30 05:42:20;;;;;;;43.38;20.02;;;;;;;;;;4421649;32;20277;-73
2022/03/30 05:44:46;;;;;;;37.58;19.52;;;;;;;;;;4421489;32;20022;-73
2022/03/30 05:47:11;;;;;;;;;;;;;;;;;;4421654;32;20026;-71
2022/03/30 05:49:36;;;;;;;44.40;20.35;;;;;;;;;;4421446;32;19989;-71
2022/03/30 05:52:02;;;;;;;;;;;;;;;;;;4407041;32;20091;-72
2022/03/30 05:54:27;;;;;;;52.15;21.65;;;;;;;;;;4420053;32;19968;-72
2022/03/30 05:57:01;;;;;;;41.58;20.48;;;;;;;;;;4420016;32;20025;-72
2022/03/30 05:59:37;;;;;;;48.40;20.98;;;;;;;;;;4419291;32;20181;-72
2022/03/30 06:02:04;;;;;;;44.00;20.70;;;;;;;;;;4419880;32;20090;-72
2022/03/30 06:04:29;;;;;;;62.95;22.17;;;;;;;;;;4419733;32;20029;-73
2022/03/30 06:06:55;;;;;;;;;;;;;;;;;;4419006;32;20060;-74
2022/03/30 06:09:20;;;;;;;49.58;20.75;;;;;;;;;;4420106;32;19933;-72
2022/03/30 06:11:45;;;;;;;;;;;;;;;;;;4411800;32;20091;-72
2022/03/30 06:14:11;;;;;;;58.40;21.83;;;;;;;;;;4403081;32;19945;-73
2022/03/30 06:16:36;;;;;;;;;;;;;;;;;;4407138;32;20129;-72
2022/03/30 06:19:02;;;;;;;41.88;22.30;;;;;;;;;;4408780;32;19937;-71
2022/03/30 06:21:28;;;;;;;56.50;24.40;;;;;;;;;;4405669;32;20086;-71
2022/03/30 06:23:53;;;;;;;;;;;;;;;;;;4404262;32;20087;-72
2022/03/30 06:26:18;;;;;;;55.45;24.70;;;;;;;;;;4414653;32;19933;-72
2022/03/30 06:28:43;;;;;;;;;;;;;;;;;;4416227;32;20203;-72
2022/03/30 06:31:12;;;;;;;49.55;22.25;;;;;;;;;;4413467;32;19961;-72
2022/03/30 06:33:38;;;;;;;48.10;23.55;;;;;;;;;;4404423;32;20153;-72
2022/03/30 06:36:03;;;;;;;45.12;22.40;;;;;;;;;;4416038;32;20030;-72
2022/03/30 06:38:28;;;;;;;;;;;;;;;;;;4403944;32;20160;-73
2022/03/30 06:40:54;;;;;;;46.42;20.98;;;;;;;;;;4403652;32;20364;-73
2022/03/30 06:43:19;;;;;;;;;;;;;;;;;;4404335;32;20023;-73
2022/03/30 06:45:46;;;;;;;50.03;22.95;;;;;;;;;;4404956;32;20315;-72
2022/03/30 06:48:11;;;;;;;42.05;21.10;;;;;;;;;;4420916;32;20420;-72
2022/03/30 06:50:36;;;;;;;;;;;;;;;;;;4427846;32;20056;-73
2022/03/30 06:53:03;;;;;;;42.60;20.42;;;;;;;;;;4419171;32;19951;-73
2022/03/30 06:55:28;;;;;;;48.10;22.23;;;;;;;;;;4420852;32;20030;-72
2022/03/30 06:57:53;;;;;;;;;;;;;;;;;;4418124;32;20041;-73
2022/03/30 07:00:18;;;;;;;42.92;19.77;;;;;;;;;;4420532;32;20271;-72
2022/03/30 07:02:43;;;;;;;;;;;;;;;;;;4418435;32;20029;-73
2022/03/30 07:05:08;;;;;;;42.33;21.75;;;;;;;;;;4407988;32;19941;-72
2022/03/30 07:10:18;;;;;;;50.63;20.23;;;;;;;;;;4418913;32;19952;-72
2022/03/30 07:12:43;;;;;;;;;;;;;;;;;;4406129;32;20023;-72
2022/03/30 07:15:08;;;;;;;46.92;19.90;;;;;;;;;;4422405;32;19952;-72
2022/03/30 07:17:34;;;;;;;;;;;;;;;;;;4422540;32;20355;-72
2022/03/30 07:19:59;;;;;;;44.55;19.08;;;;;;;;;;4409764;32;19994;-72
2022/03/30 07:22:24;;;;;;;;;;;;;;;;;;4408706;32;20061;-72
2022/03/30 07:24:49;;;;;;;42.08;18.58;;;;;;;;;;4411595;32;20023;-72
2022/03/30 07:27:14;;;;;;;;;;;;;;;;;;4420469;32;20061;-71
2022/03/30 07:29:40;;;;;;;44.20;18.83;;;;;;;;;;4410508;32;19997;-73
2022/03/30 07:32:05;;;;;;;;;;;;;;;;;;4422456;32;20125;-72
2022/03/30 07:34:30;;;;;;;40.47;18.12;;;;;;;;;;4423903;32;20295;-72
2022/03/30 07:36:55;;;;;;;;;;;;;;;;;;4417374;32;20165;-72
2022/03/30 07:39:20;;;;;;;33.97;18.05;;;;;;;;;;4407228;32;19945;-72
2022/03/30 07:41:45;;;;;;;;;;;;;;;;;;4409589;32;20104;-72
2022/03/30 07:44:11;;;;;;;37.05;19.02;;;;;;;;;;4409038;32;20281;-72
2022/03/30 07:46:36;;;;;;;;;;;;;;;;;;4417064;32;20125;-73
2022/03/30 07:49:01;;;;;;;38.63;17.42;;;;;;;;;;4413944;32;19933;-72
2022/03/30 07:51:26;;;;;;;;;;;;;;;;;;4418098;32;20200;-73
2022/03/30 07:53:51;;;;;;;38.63;19.23;;;;;;;;;;4429901;32;19997;-71
2022/03/30 07:56:16;;;;;;;;;;;;;;;;;;4408588;32;20126;-73
2022/03/30 07:58:41;;;;;;;34.17;18.20;;;;;;;;;;4408016;32;19949;-72
2022/03/30 08:01:07;;;;;;;;;;;;;;;;;;4414245;32;20416;-73
2022/03/30 08:03:32;;;;;;;40.80;19.83;;;;;;;;;;4433244;32;19937;-73
2022/03/30 08:05:57;;;;;;;;;;;;;;;;;;4437691;32;20199;-73
2022/03/30 08:08:22;;;;;;;37.05;17.00;;;;;;;;;;4421862;32;20310;-73
2022/03/30 08:10:47;;;;;;;;;;;;;;;;;;4421528;32;20050;-73
2022/03/30 08:13:12;;;;;;;43.05;17.90;;;;;;;;;;4422331;32;19937;-73
2022/03/30 08:15:38;;;;;;;;;;;;;;;;;;4422653;32;20026;-73
2022/03/30 08:18:05;;;;;;;33.22;18.25;;;;;;;;;;4422661;32;19971;-71
2022/03/30 08:23:14;;;;;;;35.42;17.83;;;;;;;;;;4422969;32;20048;-73
2022/03/30 08:25:39;;;;;;;;;;;;;;;;;;4421914;32;20022;-73
2022/03/30 08:28:04;;;;;;;32.50;18.20;;;;;;;;;;4422893;32;19938;-72
2022/03/30 08:30:30;;;;;;;;;;;;;;;;;;4410918;32;20125;-73
2022/03/30 08:32:55;;;;;;;31.27;18.70;;;;;;;;;;4416146;32;20335;-72
2022/03/30 08:35:21;;;;;;;;;;;;;;;;;;4421805;32;20134;-73
2022/03/30 08:37:46;;;;;;;36.00;18.25;;;;;;;;;;4421693;32;20374;-73
2022/03/30 08:40:11;;;;;;;;;;;;;;;;;;4406482;32;20068;-73
2022/03/30 08:42:38;;;;;;;31.42;17.25;;;;;;;;;;4411761;32;20353;-73
2022/03/30 08:45:04;;;;;;;29.48;15.00;;;;;;;;;;4407877;32;20042;-73
2022/03/30 08:47:29;;;;;;;;;;;;;;;;;;4407303;32;20344;-73
2022/03/30 08:49:54;;;;;;;28.23;15.23;;;;;;;;;;4410444;32;19933;-73
2022/03/30 08:52:19;;;;;;;;;;;;;;;;;;4421019;32;20125;-74
2022/03/30 08:54:45;;;;;;;29.42;14.52;;;;;;;;;;4411433;32;19954;-73
2022/03/30 08:57:11;;;;;;;39.92;16.05;;;;;;;;;;4405500;32;20114;-72
2022/03/30 08:59:36;;;;;;;;;;;;;;;;;;4408131;32;20049;-75
2022/03/30 09:02:02;;;;;;;28.73;14.30;;;;;;;;;;4409534;32;19952;-74
2022/03/30 09:04:27;;;;;;;;;;;;;;;;;;4412366;32;20049;-74
2022/03/30 09:06:54;;;;;;;34.53;16.98;;;;;;;;;;4411543;32;19945;-74
2022/03/30 09:09:36;;;;;;;30.77;14.98;;;;;;;;;;4413268;32;20165;-72
2022/03/30 09:12:06;;;;;;;25.23;15.02;;;;;;;;;;4411827;32;20038;-73
2022/03/30 09:14:33;;;;;;;26.48;14.13;;;;;;;;;;4408551;32;20089;-73
2022/03/30 09:17:01;;;;;;;24.12;13.85;;;;;;;;;;4411143;32;20030;-73
2022/03/30 09:19:28;;;;;;;27.00;15.02;;;;;;;;;;4413573;32;20118;-73
2022/03/30 09:21:57;;;;;;;22.62;13.65;;;;;;;;;;4411406;32;20027;-73
2022/03/30 09:24:26;;;;;;;27.73;14.65;;;;;;;;;;4411052;32;20052;-73
2022/03/30 09:26:52;;;;;;;29.10;14.23;;;;;;;;;;4410798;32;20030;-73
2022/03/30 09:29:17;;;;;;;;;;;;;;;;;;4411921;32;20117;-74
2022/03/30 09:31:44;;;;;;;24.77;13.10;;;;;;;;;;4406235;32;19961;-73
2022/03/30 09:34:10;;;;;;;22.48;11.93;;;;;;;;;;4403881;32;20539;-74
2022/03/30 09:36:35;;;;;;;;;;;;;;;;;;4407416;32;20054;-72
2022/03/30 09:39:01;;;;;;;18.62;10.38;;;;;;;;;;4419330;32;19967;-73
2022/03/30 09:41:26;;;;;;;;;;;;;;;;;;4412694;32;20095;-73
2022/03/30 09:44:01;;;;;;;15.13;9.70;;;;;;;;;;4421084;32;19966;-73
2022/03/30 09:46:26;;;;;;;16.70;9.90;;;;;;;;;;4406675;32;20150;-72
2022/03/30 09:48:55;;;;;;;;;;;;;;;;;;4418803;32;20157;-73
2022/03/30 09:51:21;;;;;;;18.42;10.50;;;;;;;;;;4431045;32;19981;-73
2022/03/30 09:53:47;;;;;;;24.52;11.77;;;;;;;;;;4416069;32;20073;-74
2022/03/30 09:56:12;;;;;;;;;;;;;;;;;;4402415;32;20018;-74
2022/03/30 09:58:38;;;;;;;19.80;10.27;;;;;;;;;;4406514;32;19977;-73
2022/03/30 10:01:03;;;;;;;;;;;;;;;;;;4406853;32;20045;-73
2022/03/30 10:03:36;;;;;;;25.37;12.00;;;;;;;;;;4406695;32;19975;-74
2022/03/30 10:06:01;;;;;;;27.02;13.60;;;;;;;;;;4405810;32;20064;-72
2022/03/30 10:08:26;;;;;;;;;;;;;;;;;;4406977;32;20081;-74
2022/03/30 10:10:52;;;;;;;25.55;12.88;;;;;;;;;;4405055;32;19938;-73
2022/03/30 10:13:17;;;;;;;;;;;;;;;;;;4407610;32;20789;-73
2022/03/30 10:15:42;;;;;;;19.20;11.20;;;;;;;;;;4418142;32;19959;-73
2022/03/30 10:18:07;;;;;;;;;;;;;;;;;;4416116;32;20034;-73
2022/03/30 10:20:32;;;;;;;16.98;9.18;;;;;;;;;;4414171;32;19982;-72
2022/03/30 10:22:57;;;;;;;;;;;;;;;;;;4418183;32;20191;-73
2022/03/30 10:25:31;;;;;;;18.67;10.32;;;;;;;;;;4416147;32;19941;-73
2022/03/30 10:28:13;;;;;;;17.95;11.07;;;;;;;;;;4412805;32;20178;-72
2022/03/30 10:30:43;;;;;;;20.70;10.95;;;;;;;;;;4414708;32;20082;-73
2022/03/30 10:33:08;;;;;;;16.95;10.82;;;;;;;;;;4413180;32;20140;-72
2022/03/30 10:35:33;;;;;;;;;;;;;;;;;;4417177;32;20410;-72
2022/03/30 10:37:59;;;;;;;20.58;10.38;;;;;;;;;;4414854;32;19972;-72
2022/03/30 10:40:24;;;;;;;;;;;;;;;;;;4410961;32;20025;-72
2022/03/30 10:42:49;;;;;;;19.33;10.02;;;;;;;;;;4417766;32;19978;-72
2022/03/30 10:45:14;;;;;;;;;;;;;;;;;;4413643;32;20067;-73
2022/03/30 10:47:59;;;;;;;17.95;10.30;;;;;;;;;;4409964;32;19934;-72
2022/03/30 10:50:41;;;;;;;14.70;9.02;;;;;;;;;;4410980;32;20079;-72
2022/03/30 10:53:25;;;;;;;14.95;9.75;;;;;;;;;;4419299;32;20049;-72
2022/03/30 10:55:50;;;;;;;16.58;9.45;;;;;;;;;;4408088;32;20165;-72
2022/03/30 10:58:16;;;;;;;;;;;;;;;;;;4419198;32;20079;-71
2022/03/30 11:00:41;;;;;;;17.50;8.98;;;;;;;;;;4412595;32;19945;-71
2022/03/30 11:03:06;;;;;;;;;;;;;;;;;;4421377;32;20096;-72
2022/03/30 11:05:32;;;;;;;15.30;9.20;;;;;;;;;;4421875;32;19937;-71
2022/03/30 11:07:57;;;;;;;;;;;;;;;;;;4438936;32;20033;-72
2022/03/30 11:10:24;;;;;;;17.98;9.20;;;;;;;;;;4411805;32;19943;-72
2022/03/30 11:12:59;;;;;;;17.92;9.30;;;;;;;;;;4407165;32;20033;-72
2022/03/30 11:15:25;;;;;;;14.70;9.20;;;;;;;;;;4411664;32;20403;-73
2022/03/30 11:17:50;;;;;;;;;;;;;;;;;;4421875;32;20049;-72
2022/03/30 11:20:16;;;;;;;16.05;9.20;;;;;;;;;;4420221;32;19937;-72
2022/03/30 11:22:44;;;;;;;15.55;10.30;;;;;;;;;;4417991;32;20106;-73
2022/03/30 11:25:09;;;;;;;14.05;9.10;;;;;;;;;;4408114;32;20022;-72
2022/03/30 11:27:35;;;;;;;16.12;9.05;;;;;;;;;;4408081;32;20109;-72
2022/03/30 11:30:03;;;;;;;13.10;8.77;;;;;;;;;;4417153;32;20046;-73
2022/03/30 11:32:34;;;;;;;12.98;8.15;;;;;;;;;;4420740;32;20019;-72
2022/03/30 11:35:00;;;;;;;19.98;8.52;;;;;;;;;;4412802;32;20025;-72
2022/03/30 11:37:28;;;;;;;18.60;9.18;;;;;;;;;;4406638;32;20475;-73
2022/03/30 11:40:20;;;;;;;15.38;9.32;;;;;;;;;;4419472;32;20030;-72
2022/03/30 11:42:49;;;;;;;14.18;7.97;;;;;;;;;;4403855;32;20030;-72
2022/03/30 11:45:21;;;;;;;17.02;9.25;;;;;;;;;;4406186;32;20022;-72
2022/03/30 11:47:48;;;;;;;12.85;8.02;;;;;;;;;;4416986;32;20438;-72
2022/03/30 11:50:15;;;;;;;14.82;8.43;;;;;;;;;;4407056;32;20096;-72
2022/03/30 11:52:41;;;;;;;15.48;9.02;;;;;;;;;;4415687;32;20465;-72
2022/03/30 11:55:07;;;;;;;12.65;9.10;;;;;;;;;;4416604;32;20093;-73
2022/03/30 11:57:37;;;;;;;13.00;8.35;;;;;;;;;;4414451;32;20050;-73
2022/03/30 12:00:05;;;;;;;13.18;8.88;;;;;;;;;;4405770;32;20023;-73
2022/03/30 12:02:30;;;;;;;12.35;8.07;;;;;;;;;;4410063;32;20055;-74
2022/03/30 12:04:56;;;;;;;16.85;9.23;;;;;;;;;;4419714;32;20022;-73
2022/03/30 12:07:22;;;;;;;11.98;7.35;;;;;;;;;;4409691;32;20030;-73
2022/03/30 12:09:53;;;;;;;11.98;7.68;;;;;;;;;;4406803;32;20457;-72
2022/03/30 12:12:26;;;;;;;15.10;6.97;;;;;;;;;;4407520;32;20299;-72
2022/03/30 12:15:03;;;;;;;13.57;6.55;;;;;;;;;;4413927;32;20393;-72
2022/03/30 12:17:28;;;;;;;12.43;7.07;;;;;;;;;;4406441;32;20429;-73
2022/03/30 12:19:54;;;;;;;11.25;7.10;;;;;;;;;;4409126;32;20026;-72
2022/03/30 12:22:20;;;;;;;12.32;6.35;;;;;;;;;;4422669;32;20022;-72
2022/03/30 12:24:45;;;;;;;11.93;6.12;;;;;;;;;;4419588;32;20045;-72
2022/03/30 12:27:11;;;;;;;9.77;5.55;;;;;;;;;;4417535;32;20332;-73
2022/03/30 12:29:37;;;;;;;11.15;5.45;;;;;;;;;;4405150;32;20081;-72
2022/03/30 12:32:03;;;;;;;10.55;5.37;;;;;;;;;;4407529;32;20053;-73
2022/03/30 12:34:31;;;;;;;8.95;5.55;;;;;;;;;;4410610;32;20403;-73
2022/03/30 12:37:01;;;;;;;6.20;4.72;;;;;;;;;;4417257;32;20037;-72
2022/03/30 12:39:33;;;;;;;9.63;5.40;;;;;;;;;;4414841;32;20118;-72
2022/03/30 12:42:03;;;;;;;8.98;4.82;;;;;;;;;;4404207;32;20065;-73
2022/03/30 12:44:29;;;;;;;11.38;5.65;;;;;;;;;;4403679;32;20029;-73
2022/03/30 12:46:55;;;;;;;5.30;4.00;;;;;;;;;;4398038;32;20369;-73
2022/03/30 12:49:30;;;;;;;6.10;4.07;;;;;;;;;;4421319;32;20088;-73
2022/03/30 12:52:03;;;;;;;6.30;4.22;;;;;;;;;;4422235;32;20433;-73
2022/03/30 12:54:28;;;;;;;10.50;4.53;;;;;;;;;;4412099;32;20026;-72
2022/03/30 12:56:53;;;;;;;9.80;5.03;;;;;;;;;;4405751;32;20156;-72
2022/03/30 12:59:19;;;;;;;5.80;4.27;;;;;;;;;;4411505;32;20383;-73
2022/03/30 13:01:49;;;;;;;7.40;5.32;;;;;;;;;;4420214;32;20114;-72
2022/03/30 13:04:17;;;;;;;9.65;3.75;;;;;;;;;;4404611;32;20402;-72
2022/03/30 13:07:02;;;;;;;8.50;4.40;;;;;;;;;;4405492;32;20053;-73
2022/03/30 13:09:28;;;;;;;4.40;3.60;;;;;;;;;;4415135;32;20061;-73
2022/03/30 13:11:53;;;;;;;5.53;3.80;;;;;;;;;;4403952;32;20026;-73
2022/03/30 13:14:19;;;;;;;8.23;4.00;;;;;;;;;;4404537;32;20087;-72
2022/03/30 13:16:55;;;;;;;7.18;3.72;;;;;;;;;;4405765;32;20034;-73
2022/03/30 13:19:22;;;;;;;8.05;4.32;;;;;;;;;;4404390;32;20313;-72
2022/03/30 13:21:47;;;;;;;5.05;3.40;;;;;;;;;;4404666;32;20053;-71
2022/03/30 13:24:13;;;;;;;6.60;3.22;;;;;;;;;;4404210;32;20080;-72
2022/03/30 13:26:39;;;;;;;6.03;3.35;;;;;;;;;;4404602;32;20098;-73
2022/03/30 13:29:04;;;;;;;5.65;3.80;;;;;;;;;;4404707;32;20026;-75
2022/03/30 13:31:30;;;;;;;7.47;3.03;;;;;;;;;;4403567;32;20097;-72
2022/03/30 13:33:57;;;;;;;5.95;3.20;;;;;;;;;;4406066;32;20031;-74
2022/03/30 13:36:22;;;;;;;8.02;3.60;;;;;;;;;;4405248;32;20065;-75
2022/03/30 13:38:50;;;;;;;8.15;3.60;;;;;;;;;;4404772;32;20347;-73
2022/03/30 13:41:16;;;;;;;7.40;3.87;;;;;;;;;;4418109;32;20030;-72
2022/03/30 13:43:42;;;;;;;7.90;3.47;;;;;;;;;;4419622;32;20392;-72
2022/03/30 13:46:07;;;;;;;7.53;3.00;;;;;;;;;;4420848;32;20054;-72
2022/03/30 13:48:32;;;;;;;4.68;3.35;;;;;;;;;;4417692;32;20026;-73
2022/03/30 13:51:00;;;;;;;4.10;2.70;;;;;;;;;;4413779;32;20137;-74
2022/03/30 13:53:25;;;;;;;6.05;3.53;;;;;;;;;;4414564;32;20041;-72
2022/03/30 13:55:51;;;;;;;9.48;2.50;;;;;;;;;;4420889;32;20022;-73
2022/03/30 13:58:16;;;;;;;6.22;2.80;;;;;;;;;;4420988;32;20049;-73
2022/03/30 14:00:42;;;;;;;5.22;2.70;;;;;;;;;;4420166;32;20025;-72
2022/03/30 14:03:07;;;;;;;5.35;2.90;;;;;;;;;;4418668;32;20471;-73
2022/03/30 14:05:32;;;;;;;6.43;2.62;;;;;;;;;;4419829;32;20076;-73
2022/03/30 14:07:58;;;;;;;8.27;2.75;;;;;;;;;;4420146;32;20025;-73
2022/03/30 14:10:24;;;;;;;6.12;2.37;;;;;;;;;;4412619;32;20019;-74
2022/03/30 14:12:50;;;;;;;3.28;2.22;;;;;;;;;;4403808;32;20435;-73
2022/03/30 14:15:15;;;;;;;3.10;2.15;;;;;;;;;;4404746;32;20053;-72
2022/03/30 14:17:40;;;;;;;5.32;1.92;;;;;;;;;;4405310;32;20030;-74
2022/03/30 14:20:05;;;;;;;;;;;;;;;;;;4410132;32;20026;-74
2022/03/30 14:22:30;;;;;;;10.38;2.53;;;;;;;;;;4404720;32;20278;-73
2022/03/30 14:24:56;;;;;;;4.15;2.65;;;;;;;;;;4405239;32;20083;-74
2022/03/30 14:27:21;;;;;;;4.40;2.70;;;;;;;;;;4404381;32;20027;-73
2022/03/30 14:29:46;;;;;;;4.57;2.72;;;;;;;;;;4414592;32;20125;-72
2022/03/30 14:32:11;;;;;;;8.75;2.65;;;;;;;;;;4417062;32;20030;-73
2022/03/30 14:34:37;;;;;;;7.50;2.45;;;;;;;;;;4414410;32;20410;-73
2022/03/30 14:37:02;;;;;;;6.65;2.75;;;;;;;;;;4421862;32;20030;-73
2022/03/30 14:39:27;;;;;;;4.93;2.37;;;;;;;;;;4417867;32;20034;-73
2022/03/30 14:41:53;;;;;;;5.65;2.60;;;;;;;;;;4419887;32;20052;-74
2022/03/30 14:44:20;;;;;;;3.87;2.28;;;;;;;;;;4419307;32;20064;-72
2022/03/30 14:46:45;;;;;;;6.60;2.55;;;;;;;;;;4418968;32;20018;-72
2022/03/30 14:49:10;;;;;;;9.70;2.30;;;;;;;;;;4408626;32;20018;-73
2022/03/30 14:51:35;;;;;;;8.70;2.67;;;;;;;;;;4415225;32;20052;-71
2022/03/30 14:54:01;;;;;;;7.70;2.60;;;;;;;;;;4407783;32;20463;-72
2022/03/30 14:56:26;;;;;;;8.65;2.45;;;;;;;;;;4416330;32;20071;-74
2022/03/30 14:58:51;;;;;;;5.47;2.60;;;;;;;;;;4417043;32;20115;-72
2022/03/30 15:01:17;;;;;;;6.12;2.75;;;;;;;;;;4414423;32;20549;-74
2022/03/30 15:03:44;;;;;;;7.47;2.70;;;;;;;;;;4412720;32;20144;-72
2022/03/30 15:06:11;;;;;;;5.87;2.58;;;;;;;;;;4404637;32;20049;-72
2022/03/30 15:08:36;;;;;;;4.40;2.20;;;;;;;;;;4404061;32;20434;-72
2022/03/30 15:11:01;;;;;;;8.07;2.50;;;;;;;;;;4409934;32;20457;-71